sensor_id;sensor_type;location;lat;lon;timestamp;P1;durP1;ratioP1;P2;durP2;ratioP2
23242;SDS011;11790;49.578;11.214;2024-03-25T00:03:19;9.65;;;5.72;;
23242;SDS011;11790;49.578;11.214;2024-03-25T00:08:19;12.32;;;5.90;;
23242;SDS011;11790;49.578;11.214;2024-03-25T00:13:19;9.35;;;5.80;;
23242;SDS011;11790;49.578;11.214;2024-03-25T00:18:20;12.18;;;6.75;;
23242;SDS011;11790;49.578;11.214;2024-03-25T00:23:20;12.63;;;6.43;;
23242;SDS011;11790;49.578;11.214;2024-03-25T00:28:20;11.68;;;6.40;;
23242;SDS011;11790;49.578;11.214;2024-03-25T00:33:21;13.32;;;6.25;;
23242;SDS011;11790;49.578;11.214;2024-03-25T00:38:22;12.85;;;6.55;;
23242;SDS011;11790;49.578;11.214;2024-03-25T00:43:22;9.63;;;5.78;;
23242;SDS011;11790;49.578;11.214;2024-03-25T00:48:22;12.25;;;5.55;;
23242;SDS011;11790;49.578;11.214;2024-03-25T00:53:23;12.63;;;6.30;;
23242;SDS011;11790;49.578;11.214;2024-03-25T00:58:23;10.35;;;6.40;;
23242;SDS011;11790;49.578;11.214;2024-03-25T01:03:23;11.32;;;6.25;;
23242;SDS011;11790;49.578;11.214;2024-03-25T01:08:23;10.20;;;6.35;;
23242;SDS011;11790;49.578;11.214;2024-03-25T01:13:24;12.48;;;7.05;;
23242;SDS011;11790;49.578;11.214;2024-03-25T01:18:24;12.82;;;6.45;;
23242;SDS011;11790;49.578;11.214;2024-03-25T01:23:24;9.25;;;6.00;;
23242;SDS011;11790;49.578;11.214;2024-03-25T01:28:24;12.00;;;6.30;;
23242;SDS011;11790;49.578;11.214;2024-03-25T01:33:25;13.73;;;6.47;;
23242;SDS011;11790;49.578;11.214;2024-03-25T01:38:26;18.92;;;6.00;;
23242;SDS011;11790;49.578;11.214;2024-03-25T01:43:26;8.40;;;5.90;;
23242;SDS011;11790;49.578;11.214;2024-03-25T01:48:26;14.07;;;6.43;;
23242;SDS011;11790;49.578;11.214;2024-03-25T01:53:27;13.65;;;6.75;;
23242;SDS011;11790;49.578;11.214;2024-03-25T01:58:28;14.38;;;6.47;;
23242;SDS011;11790;49.578;11.214;2024-03-25T02:03:30;15.93;;;6.38;;
23242;SDS011;11790;49.578;11.214;2024-03-25T02:08:31;10.90;;;6.32;;
23242;SDS011;11790;49.578;11.214;2024-03-25T02:13:32;13.27;;;6.47;;
23242;SDS011;11790;49.578;11.214;2024-03-25T02:18:32;10.45;;;5.80;;
23242;SDS011;11790;49.578;11.214;2024-03-25T02:23:32;13.82;;;6.18;;
23242;SDS011;11790;49.578;11.214;2024-03-25T02:28:34;11.43;;;6.43;;
23242;SDS011;11790;49.578;11.214;2024-03-25T02:33:34;14.00;;;6.35;;
23242;SDS011;11790;49.578;11.214;2024-03-25T02:38:34;15.82;;;6.05;;
23242;SDS011;11790;49.578;11.214;2024-03-25T02:43:35;10.77;;;6.00;;
23242;SDS011;11790;49.578;11.214;2024-03-25T02:48:35;8.93;;;5.70;;
23242;SDS011;11790;49.578;11.214;2024-03-25T02:53:35;10.57;;;5.90;;
23242;SDS011;11790;49.578;11.214;2024-03-25T02:58:35;11.15;;;5.68;;
23242;SDS011;11790;49.578;11.214;2024-03-25T03:03:35;9.35;;;5.50;;
23242;SDS011;11790;49.578;11.214;2024-03-25T03:08:35;14.82;;;6.50;;
23242;SDS011;11790;49.578;11.214;2024-03-25T03:13:36;11.23;;;5.80;;
23242;SDS011;11790;49.578;11.214;2024-03-25T03:18:37;13.57;;;6.32;;
23242;SDS011;11790;49.578;11.214;2024-03-25T03:23:37;11.27;;;6.20;;
23242;SDS011;11790;49.578;11.214;2024-03-25T03:28:37;9.57;;;5.78;;
23242;SDS011;11790;49.578;11.214;2024-03-25T03:33:37;10.02;;;6.00;;
23242;SDS011;11790;49.578;11.214;2024-03-25T03:38:37;11.00;;;6.32;;
23242;SDS011;11790;49.578;11.214;2024-03-25T03:43:38;9.68;;;5.97;;
23242;SDS011;11790;49.578;11.214;2024-03-25T03:48:38;11.43;;;5.40;;
23242;SDS011;11790;49.578;11.214;2024-03-25T03:53:39;10.52;;;6.13;;
23242;SDS011;11790;49.578;11.214;2024-03-25T03:58:39;14.13;;;5.70;;
23242;SDS011;11790;49.578;11.214;2024-03-25T04:03:39;11.25;;;6.50;;
23242;SDS011;11790;49.578;11.214;2024-03-25T04:08:40;13.15;;;6.80;;
23242;SDS011;11790;49.578;11.214;2024-03-25T04:13:40;12.03;;;7.20;;
23242;SDS011;11790;49.578;11.214;2024-03-25T04:18:40;13.80;;;6.97;;
23242;SDS011;11790;49.578;11.214;2024-03-25T04:23:42;17.10;;;7.75;;
23242;SDS011;11790;49.578;11.214;2024-03-25T04:28:43;14.10;;;8.20;;
23242;SDS011;11790;49.578;11.214;2024-03-25T04:33:43;14.20;;;7.80;;
23242;SDS011;11790;49.578;11.214;2024-03-25T04:38:43;13.40;;;7.68;;
23242;SDS011;11790;49.578;11.214;2024-03-25T04:43:43;13.00;;;7.50;;
23242;SDS011;11790;49.578;11.214;2024-03-25T04:48:44;14.10;;;7.95;;
23242;SDS011;11790;49.578;11.214;2024-03-25T04:53:44;12.27;;;8.38;;
23242;SDS011;11790;49.578;11.214;2024-03-25T04:58:44;11.60;;;7.32;;
23242;SDS011;11790;49.578;11.214;2024-03-25T05:03:45;21.95;;;8.20;;
23242;SDS011;11790;49.578;11.214;2024-03-25T05:08:45;15.73;;;8.43;;
23242;SDS011;11790;49.578;11.214;2024-03-25T05:13:45;13.45;;;7.47;;
23242;SDS011;11790;49.578;11.214;2024-03-25T05:18:45;14.88;;;7.80;;
23242;SDS011;11790;49.578;11.214;2024-03-25T05:23:45;17.75;;;8.05;;
23242;SDS011;11790;49.578;11.214;2024-03-25T05:28:45;16.80;;;8.10;;
23242;SDS011;11790;49.578;11.214;2024-03-25T05:33:45;14.90;;;8.48;;
23242;SDS011;11790;49.578;11.214;2024-03-25T05:38:46;12.00;;;7.80;;
23242;SDS011;11790;49.578;11.214;2024-03-25T05:43:46;13.00;;;8.07;;
23242;SDS011;11790;49.578;11.214;2024-03-25T05:48:47;11.73;;;6.68;;
23242;SDS011;11790;49.578;11.214;2024-03-25T05:53:47;15.25;;;7.18;;
23242;SDS011;11790;49.578;11.214;2024-03-25T05:58:47;12.48;;;7.10;;
23242;SDS011;11790;49.578;11.214;2024-03-25T06:03:47;13.15;;;6.90;;
23242;SDS011;11790;49.578;11.214;2024-03-25T06:08:47;13.05;;;6.82;;
23242;SDS011;11790;49.578;11.214;2024-03-25T06:13:48;15.68;;;6.90;;
23242;SDS011;11790;49.578;11.214;2024-03-25T06:18:48;25.35;;;6.60;;
23242;SDS011;11790;49.578;11.214;2024-03-25T06:23:50;10.05;;;6.03;;
23242;SDS011;11790;49.578;11.214;2024-03-25T06:28:52;10.45;;;6.35;;
23242;SDS011;11790;49.578;11.214;2024-03-25T06:33:52;11.48;;;5.88;;
23242;SDS011;11790;49.578;11.214;2024-03-25T06:39:11;12.07;;;6.40;;
23242;SDS011;11790;49.578;11.214;2024-03-25T06:44:11;12.70;;;6.32;;
23242;SDS011;11790;49.578;11.214;2024-03-25T06:49:12;10.63;;;5.82;;
23242;SDS011;11790;49.578;11.214;2024-03-25T06:54:12;13.13;;;5.85;;
23242;SDS011;11790;49.578;11.214;2024-03-25T06:59:13;13.90;;;6.10;;
23242;SDS011;11790;49.578;11.214;2024-03-25T07:04:13;11.15;;;6.07;;
23242;SDS011;11790;49.578;11.214;2024-03-25T07:09:15;10.55;;;5.95;;
23242;SDS011;11790;49.578;11.214;2024-03-25T07:14:17;11.43;;;4.97;;
23242;SDS011;11790;49.578;11.214;2024-03-25T07:19:17;9.77;;;5.00;;
23242;SDS011;11790;49.578;11.214;2024-03-25T07:24:18;12.80;;;5.75;;
23242;SDS011;11790;49.578;11.214;2024-03-25T07:29:18;11.65;;;5.10;;
23242;SDS011;11790;49.578;11.214;2024-03-25T07:34:19;9.38;;;4.68;;
23242;SDS011;11790;49.578;11.214;2024-03-25T07:39:19;11.20;;;4.15;;
23242;SDS011;11790;49.578;11.214;2024-03-25T07:44:24;10.80;;;4.70;;
23242;SDS011;11790;49.578;11.214;2024-03-25T07:49:25;9.35;;;4.07;;
23242;SDS011;11790;49.578;11.214;2024-03-25T07:54:25;9.65;;;3.42;;
23242;SDS011;11790;49.578;11.214;2024-03-25T07:59:26;6.25;;;3.78;;
23242;SDS011;11790;49.578;11.214;2024-03-25T08:04:26;7.40;;;3.40;;
23242;SDS011;11790;49.578;11.214;2024-03-25T08:09:27;6.35;;;3.40;;
23242;SDS011;11790;49.578;11.214;2024-03-25T08:14:27;8.57;;;3.35;;
23242;SDS011;11790;49.578;11.214;2024-03-25T08:19:27;9.63;;;3.22;;
23242;SDS011;11790;49.578;11.214;2024-03-25T08:24:27;13.48;;;3.67;;
23242;SDS011;11790;49.578;11.214;2024-03-25T08:29:28;10.13;;;3.13;;
23242;SDS011;11790;49.578;11.214;2024-03-25T08:34:28;10.25;;;2.83;;
23242;SDS011;11790;49.578;11.214;2024-03-25T08:39:28;5.85;;;1.85;;
23242;SDS011;11790;49.578;11.214;2024-03-25T08:44:28;4.95;;;2.20;;
23242;SDS011;11790;49.578;11.214;2024-03-25T08:49:29;10.55;;;3.10;;
23242;SDS011;11790;49.578;11.214;2024-03-25T08:54:29;7.50;;;2.17;;
23242;SDS011;11790;49.578;11.214;2024-03-25T08:59:29;8.10;;;2.13;;
23242;SDS011;11790;49.578;11.214;2024-03-25T09:04:29;5.90;;;2.28;;
23242;SDS011;11790;49.578;11.214;2024-03-25T09:09:30;3.58;;;2.08;;
23242;SDS011;11790;49.578;11.214;2024-03-25T09:14:48;8.15;;;2.78;;
23242;SDS011;11790;49.578;11.214;2024-03-25T09:19:48;5.90;;;2.45;;
23242;SDS011;11790;49.578;11.214;2024-03-25T09:24:49;6.53;;;2.70;;
23242;SDS011;11790;49.578;11.214;2024-03-25T09:29:49;7.40;;;2.80;;
23242;SDS011;11790;49.578;11.214;2024-03-25T09:34:50;8.32;;;3.30;;
23242;SDS011;11790;49.578;11.214;2024-03-25T09:39:51;4.47;;;2.65;;
23242;SDS011;11790;49.578;11.214;2024-03-25T09:44:53;9.45;;;2.72;;
23242;SDS011;11790;49.578;11.214;2024-03-25T09:49:54;7.43;;;2.63;;
23242;SDS011;11790;49.578;11.214;2024-03-25T09:54:54;4.88;;;2.13;;
23242;SDS011;11790;49.578;11.214;2024-03-25T09:59:55;2.63;;;1.80;;
23242;SDS011;11790;49.578;11.214;2024-03-25T10:04:55;3.55;;;1.90;;
23242;SDS011;11790;49.578;11.214;2024-03-25T10:09:56;6.40;;;1.85;;
23242;SDS011;11790;49.578;11.214;2024-03-25T10:14:58;5.03;;;1.95;;
23242;SDS011;11790;49.578;11.214;2024-03-25T10:19:58;4.40;;;1.90;;
23242;SDS011;11790;49.578;11.214;2024-03-25T10:24:59;4.90;;;1.90;;
23242;SDS011;11790;49.578;11.214;2024-03-25T10:29:59;7.45;;;2.20;;
23242;SDS011;11790;49.578;11.214;2024-03-25T10:34:59;4.53;;;2.35;;
23242;SDS011;11790;49.578;11.214;2024-03-25T10:40:01;6.50;;;2.53;;
23242;SDS011;11790;49.578;11.214;2024-03-25T10:45:01;7.43;;;2.30;;
23242;SDS011;11790;49.578;11.214;2024-03-25T10:50:04;2.95;;;1.77;;
23242;SDS011;11790;49.578;11.214;2024-03-25T10:55:07;3.38;;;2.22;;
23242;SDS011;11790;49.578;11.214;2024-03-25T11:00:09;3.25;;;2.00;;
23242;SDS011;11790;49.578;11.214;2024-03-25T11:05:14;5.27;;;2.00;;
23242;SDS011;11790;49.578;11.214;2024-03-25T11:10:15;6.18;;;2.25;;
23242;SDS011;11790;49.578;11.214;2024-03-25T11:15:15;7.30;;;2.23;;
23242;SDS011;11790;49.578;11.214;2024-03-25T11:20:15;4.93;;;2.35;;
23242;SDS011;11790;49.578;11.214;2024-03-25T11:25:16;4.70;;;1.98;;
23242;SDS011;11790;49.578;11.214;2024-03-25T11:30:17;3.75;;;1.90;;
23242;SDS011;11790;49.578;11.214;2024-03-25T11:35:17;6.25;;;2.40;;
23242;SDS011;11790;49.578;11.214;2024-03-25T11:40:18;3.17;;;2.10;;
23242;SDS011;11790;49.578;11.214;2024-03-25T11:45:19;4.55;;;2.10;;
23242;SDS011;11790;49.578;11.214;2024-03-25T11:50:20;4.38;;;2.03;;
23242;SDS011;11790;49.578;11.214;2024-03-25T11:55:20;6.57;;;1.80;;
23242;SDS011;11790;49.578;11.214;2024-03-25T12:00:20;4.20;;;1.77;;
23242;SDS011;11790;49.578;11.214;2024-03-25T12:05:20;6.87;;;2.33;;
23242;SDS011;11790;49.578;11.214;2024-03-25T12:10:21;4.88;;;1.67;;
23242;SDS011;11790;49.578;11.214;2024-03-25T12:15:40;4.47;;;2.10;;
23242;SDS011;11790;49.578;11.214;2024-03-25T12:20:40;3.38;;;1.70;;
23242;SDS011;11790;49.578;11.214;2024-03-25T12:25:41;3.20;;;1.63;;
23242;SDS011;11790;49.578;11.214;2024-03-25T12:30:53;3.83;;;1.60;;
23242;SDS011;11790;49.578;11.214;2024-03-25T12:35:56;3.15;;;2.03;;
23242;SDS011;11790;49.578;11.214;2024-03-25T12:41:07;2.92;;;1.60;;
23242;SDS011;11790;49.578;11.214;2024-03-25T12:46:07;2.83;;;1.60;;
23242;SDS011;11790;49.578;11.214;2024-03-25T12:51:12;4.72;;;1.50;;
23242;SDS011;11790;49.578;11.214;2024-03-25T12:56:13;4.18;;;1.40;;
23242;SDS011;11790;49.578;11.214;2024-03-25T13:01:13;2.22;;;1.25;;
23242;SDS011;11790;49.578;11.214;2024-03-25T13:06:13;2.95;;;1.55;;
23242;SDS011;11790;49.578;11.214;2024-03-25T13:11:13;1.88;;;1.20;;
23242;SDS011;11790;49.578;11.214;2024-03-25T13:16:14;3.03;;;1.38;;
23242;SDS011;11790;49.578;11.214;2024-03-25T13:21:14;2.75;;;1.20;;
23242;SDS011;11790;49.578;11.214;2024-03-25T13:26:14;3.45;;;1.52;;
23242;SDS011;11790;49.578;11.214;2024-03-25T13:31:15;3.05;;;1.50;;
23242;SDS011;11790;49.578;11.214;2024-03-25T13:36:15;1.70;;;1.13;;
23242;SDS011;11790;49.578;11.214;2024-03-25T13:41:15;2.15;;;1.40;;
23242;SDS011;11790;49.578;11.214;2024-03-25T13:46:18;3.55;;;1.40;;
23242;SDS011;11790;49.578;11.214;2024-03-25T13:51:19;1.98;;;1.30;;
23242;SDS011;11790;49.578;11.214;2024-03-25T13:56:19;3.10;;;1.48;;
23242;SDS011;11790;49.578;11.214;2024-03-25T14:01:19;2.80;;;1.30;;
23242;SDS011;11790;49.578;11.214;2024-03-25T14:06:19;2.50;;;1.33;;
23242;SDS011;11790;49.578;11.214;2024-03-25T14:11:20;4.80;;;1.40;;
23242;SDS011;11790;49.578;11.214;2024-03-25T14:16:20;2.95;;;1.40;;
23242;SDS011;11790;49.578;11.214;2024-03-25T14:21:20;3.22;;;1.38;;
23242;SDS011;11790;49.578;11.214;2024-03-25T14:26:20;3.13;;;1.63;;
23242;SDS011;11790;49.578;11.214;2024-03-25T14:31:21;3.40;;;1.52;;
23242;SDS011;11790;49.578;11.214;2024-03-25T14:36:21;4.10;;;1.40;;
23242;SDS011;11790;49.578;11.214;2024-03-25T14:41:24;1.75;;;1.33;;
23242;SDS011;11790;49.578;11.214;2024-03-25T14:46:24;2.40;;;1.52;;
23242;SDS011;11790;49.578;11.214;2024-03-25T14:51:25;4.30;;;1.45;;
23242;SDS011;11790;49.578;11.214;2024-03-25T14:56:26;2.78;;;1.30;;
23242;SDS011;11790;49.578;11.214;2024-03-25T15:01:26;1.70;;;1.10;;
23242;SDS011;11790;49.578;11.214;2024-03-25T15:06:26;2.85;;;1.20;;
23242;SDS011;11790;49.578;11.214;2024-03-25T15:11:27;2.30;;;1.40;;
23242;SDS011;11790;49.578;11.214;2024-03-25T15:16:27;3.58;;;1.70;;
23242;SDS011;11790;49.578;11.214;2024-03-25T15:21:27;2.88;;;1.42;;
23242;SDS011;11790;49.578;11.214;2024-03-25T15:26:27;4.00;;;1.50;;
23242;SDS011;11790;49.578;11.214;2024-03-25T15:31:28;3.92;;;1.70;;
23242;SDS011;11790;49.578;11.214;2024-03-25T15:36:28;5.63;;;1.70;;
23242;SDS011;11790;49.578;11.214;2024-03-25T15:41:30;3.72;;;1.67;;
23242;SDS011;11790;49.578;11.214;2024-03-25T15:46:30;2.97;;;1.70;;
23242;SDS011;11790;49.578;11.214;2024-03-25T15:51:31;4.00;;;1.60;;
23242;SDS011;11790;49.578;11.214;2024-03-25T15:56:31;1.95;;;1.27;;
23242;SDS011;11790;49.578;11.214;2024-03-25T16:01:31;3.28;;;1.30;;
23242;SDS011;11790;49.578;11.214;2024-03-25T16:06:31;2.92;;;1.60;;
23242;SDS011;11790;49.578;11.214;2024-03-25T16:11:31;3.45;;;1.50;;
23242;SDS011;11790;49.578;11.214;2024-03-25T16:16:32;1.77;;;1.20;;
23242;SDS011;11790;49.578;11.214;2024-03-25T16:21:33;2.08;;;1.50;;
23242;SDS011;11790;49.578;11.214;2024-03-25T16:26:33;3.70;;;1.50;;
23242;SDS011;11790;49.578;11.214;2024-03-25T16:31:33;2.90;;;1.38;;
23242;SDS011;11790;49.578;11.214;2024-03-25T16:36:33;1.83;;;1.20;;
23242;SDS011;11790;49.578;11.214;2024-03-25T16:41:34;1.77;;;1.20;;
23242;SDS011;11790;49.578;11.214;2024-03-25T16:46:34;2.97;;;1.45;;
23242;SDS011;11790;49.578;11.214;2024-03-25T16:51:34;1.67;;;1.38;;
23242;SDS011;11790;49.578;11.214;2024-03-25T16:56:34;3.97;;;1.63;;
23242;SDS011;11790;49.578;11.214;2024-03-25T17:01:34;3.40;;;1.63;;
23242;SDS011;11790;49.578;11.214;2024-03-25T17:06:34;3.55;;;1.50;;
23242;SDS011;11790;49.578;11.214;2024-03-25T17:11:35;3.67;;;1.60;;
23242;SDS011;11790;49.578;11.214;2024-03-25T17:16:36;3.05;;;1.10;;
23242;SDS011;11790;49.578;11.214;2024-03-25T17:21:36;5.30;;;1.40;;
23242;SDS011;11790;49.578;11.214;2024-03-25T17:26:36;3.25;;;1.85;;
23242;SDS011;11790;49.578;11.214;2024-03-25T17:31:37;3.97;;;1.50;;
23242;SDS011;11790;49.578;11.214;2024-03-25T17:36:37;3.88;;;1.80;;
23242;SDS011;11790;49.578;11.214;2024-03-25T17:41:37;5.28;;;1.90;;
23242;SDS011;11790;49.578;11.214;2024-03-25T17:46:38;5.03;;;1.70;;
23242;SDS011;11790;49.578;11.214;2024-03-25T17:51:38;4.30;;;2.13;;
23242;SDS011;11790;49.578;11.214;2024-03-25T17:56:39;7.07;;;2.97;;
23242;SDS011;11790;49.578;11.214;2024-03-25T18:01:39;11.15;;;5.65;;
23242;SDS011;11790;49.578;11.214;2024-03-25T18:06:39;18.67;;;8.75;;
23242;SDS011;11790;49.578;11.214;2024-03-25T18:11:39;21.83;;;8.85;;
23242;SDS011;11790;49.578;11.214;2024-03-25T18:16:40;11.70;;;6.22;;
23242;SDS011;11790;49.578;11.214;2024-03-25T18:21:40;8.70;;;5.20;;
23242;SDS011;11790;49.578;11.214;2024-03-25T18:26:40;8.93;;;4.22;;
23242;SDS011;11790;49.578;11.214;2024-03-25T18:31:40;9.98;;;4.80;;
23242;SDS011;11790;49.578;11.214;2024-03-25T18:36:41;11.60;;;4.85;;
23242;SDS011;11790;49.578;11.214;2024-03-25T18:41:41;10.05;;;4.47;;
23242;SDS011;11790;49.578;11.214;2024-03-25T18:46:41;13.38;;;5.38;;
23242;SDS011;11790;49.578;11.214;2024-03-25T18:51:41;14.65;;;7.25;;
23242;SDS011;11790;49.578;11.214;2024-03-25T18:56:41;11.88;;;6.32;;
23242;SDS011;11790;49.578;11.214;2024-03-25T19:01:41;12.75;;;6.20;;
23242;SDS011;11790;49.578;11.214;2024-03-25T19:06:42;17.00;;;6.30;;
23242;SDS011;11790;49.578;11.214;2024-03-25T19:11:42;12.98;;;5.72;;
23242;SDS011;11790;49.578;11.214;2024-03-25T19:16:42;15.80;;;6.63;;
23242;SDS011;11790;49.578;11.214;2024-03-25T19:21:42;19.70;;;7.63;;
23242;SDS011;11790;49.578;11.214;2024-03-25T19:26:44;18.23;;;6.85;;
23242;SDS011;11790;49.578;11.214;2024-03-25T19:31:44;14.60;;;7.78;;
23242;SDS011;11790;49.578;11.214;2024-03-25T19:36:45;14.30;;;6.65;;
23242;SDS011;11790;49.578;11.214;2024-03-25T19:41:45;10.18;;;5.22;;
23242;SDS011;11790;49.578;11.214;2024-03-25T19:46:45;9.00;;;4.60;;
23242;SDS011;11790;49.578;11.214;2024-03-25T19:51:45;10.38;;;4.22;;
23242;SDS011;11790;49.578;11.214;2024-03-25T19:56:46;10.30;;;4.55;;
23242;SDS011;11790;49.578;11.214;2024-03-25T20:01:46;7.72;;;4.43;;
23242;SDS011;11790;49.578;11.214;2024-03-25T20:06:46;9.82;;;4.22;;
23242;SDS011;11790;49.578;11.214;2024-03-25T20:11:46;8.05;;;4.75;;
23242;SDS011;11790;49.578;11.214;2024-03-25T20:16:46;7.75;;;3.90;;
23242;SDS011;11790;49.578;11.214;2024-03-25T20:21:47;6.18;;;3.65;;
23242;SDS011;11790;49.578;11.214;2024-03-25T20:26:47;7.75;;;3.80;;
23242;SDS011;11790;49.578;11.214;2024-03-25T20:31:47;7.50;;;3.88;;
23242;SDS011;11790;49.578;11.214;2024-03-25T20:36:47;13.80;;;3.13;;
23242;SDS011;11790;49.578;11.214;2024-03-25T20:41:48;6.30;;;3.42;;
23242;SDS011;11790;49.578;11.214;2024-03-25T20:46:48;7.18;;;3.70;;
23242;SDS011;11790;49.578;11.214;2024-03-25T20:51:48;5.68;;;3.63;;
23242;SDS011;11790;49.578;11.214;2024-03-25T20:56:48;11.00;;;5.55;;
23242;SDS011;11790;49.578;11.214;2024-03-25T21:01:49;10.20;;;4.15;;
23242;SDS011;11790;49.578;11.214;2024-03-25T21:06:49;6.95;;;3.95;;
23242;SDS011;11790;49.578;11.214;2024-03-25T21:11:49;7.32;;;3.92;;
23242;SDS011;11790;49.578;11.214;2024-03-25T21:16:49;10.27;;;3.95;;
23242;SDS011;11790;49.578;11.214;2024-03-25T21:21:50;7.90;;;3.90;;
23242;SDS011;11790;49.578;11.214;2024-03-25T21:26:50;10.15;;;4.80;;
23242;SDS011;11790;49.578;11.214;2024-03-25T21:31:50;10.65;;;4.95;;
23242;SDS011;11790;49.578;11.214;2024-03-25T21:36:50;11.18;;;5.03;;
23242;SDS011;11790;49.578;11.214;2024-03-25T21:41:51;11.23;;;5.75;;
23242;SDS011;11790;49.578;11.214;2024-03-25T21:46:51;16.77;;;5.05;;
23242;SDS011;11790;49.578;11.214;2024-03-25T21:51:51;9.07;;;4.80;;
23242;SDS011;11790;49.578;11.214;2024-03-25T21:56:51;8.48;;;5.30;;
23242;SDS011;11790;49.578;11.214;2024-03-25T22:01:51;10.38;;;4.85;;
23242;SDS011;11790;49.578;11.214;2024-03-25T22:06:52;10.73;;;4.55;;
23242;SDS011;11790;49.578;11.214;2024-03-25T22:11:52;14.60;;;5.30;;
23242;SDS011;11790;49.578;11.214;2024-03-25T22:16:52;6.55;;;4.55;;
23242;SDS011;11790;49.578;11.214;2024-03-25T22:21:52;11.35;;;5.38;;
23242;SDS011;11790;49.578;11.214;2024-03-25T22:26:52;8.30;;;4.70;;
23242;SDS011;11790;49.578;11.214;2024-03-25T22:31:53;8.65;;;4.40;;
23242;SDS011;11790;49.578;11.214;2024-03-25T22:36:53;8.57;;;4.38;;
23242;SDS011;11790;49.578;11.214;2024-03-25T22:41:53;9.88;;;4.30;;
23242;SDS011;11790;49.578;11.214;2024-03-25T22:46:53;11.48;;;4.22;;
23242;SDS011;11790;49.578;11.214;2024-03-25T22:51:53;6.28;;;4.00;;
23242;SDS011;11790;49.578;11.214;2024-03-25T22:56:53;10.63;;;5.03;;
23242;SDS011;11790;49.578;11.214;2024-03-25T23:01:54;11.25;;;5.43;;
23242;SDS011;11790;49.578;11.214;2024-03-25T23:06:55;9.50;;;5.47;;
23242;SDS011;11790;49.578;11.214;2024-03-25T23:11:55;13.60;;;5.32;;
23242;SDS011;11790;49.578;11.214;2024-03-25T23:16:56;9.85;;;5.53;;
23242;SDS011;11790;49.578;11.214;2024-03-25T23:21:56;9.10;;;4.97;;
23242;SDS011;11790;49.578;11.214;2024-03-25T23:26:57;8.52;;;4.50;;
23242;SDS011;11790;49.578;11.214;2024-03-25T23:31:58;7.97;;;4.82;;
23242;SDS011;11790;49.578;11.214;2024-03-25T23:36:58;8.73;;;4.40;;
23242;SDS011;11790;49.578;11.214;2024-03-25T23:41:58;6.30;;;3.88;;
23242;SDS011;11790;49.578;11.214;2024-03-25T23:46:58;8.77;;;4.43;;
23242;SDS011;11790;49.578;11.214;2024-03-25T23:51:58;8.30;;;3.78;;
23242;SDS011;11790;49.578;11.214;2024-03-25T23:57:04;8.48;;;4.07;;
